Time;durP1;ratioP1;P1;durP2;ratioP2;P2;SDS_P1;SDS_P2;PMS_P1;PMS_P2;Temp;Humidity;BMP_temperature;BMP_pressure;BME280_temperature;BME280_humidity;BME280_pressure;Samples;Min_cycle;Max_cycle;Signal;HPM_P1;HPM_P2
2022/01/19 00:01:19;;;;;;;104.68;30.90;;;4.70;99.90;;;;;;5028594;28;20045;-51
2022/01/19 00:03:45;;;;;;;116.43;31.27;;;4.70;99.90;;;;;;5031040;28;20042;-53
2022/01/19 00:06:11;;;;;;;117.82;32.13;;;4.70;99.90;;;;;;5034990;28;20091;-55
2022/01/19 00:08:38;;;;;;;119.95;31.50;;;4.60;99.90;;;;;;5034824;28;20049;-52
2022/01/19 00:11:03;;;;;;;92.80;29.27;;;4.60;99.90;;;;;;5034860;28;20044;-54
2022/01/19 00:13:29;;;;;;;87.97;28.25;;;4.60;99.90;;;;;;5034672;28;20049;-54
2022/01/19 00:15:55;;;;;;;101.05;29.90;;;4.50;99.90;;;;;;5034406;28;20053;-54
2022/01/19 00:18:23;;;;;;;103.82;29.52;;;4.50;99.90;;;;;;5034878;28;20041;-54
2022/01/19 00:20:50;;;;;;;109.45;29.63;;;4.40;99.90;;;;;;5034230;28;20522;-50
2022/01/19 00:23:16;;;;;;;124.22;31.08;;;4.40;99.90;;;;;;5034733;28;20055;-51
2022/01/19 00:25:43;;;;;;;110.63;30.23;;;4.30;99.90;;;;;;5034474;28;20048;-48
2022/01/19 00:28:10;;;;;;;113.47;30.38;;;4.30;99.90;;;;;;5034543;28;20049;-52
2022/01/19 00:30:35;;;;;;;124.30;30.80;;;4.30;99.90;;;;;;5042973;28;20053;-53
2022/01/19 00:33:01;;;;;;;134.50;32.50;;;4.30;99.90;;;;;;5008407;28;20037;-50
2022/01/19 00:35:27;;;;;;;140.40;34.22;;;4.30;99.90;;;;;;5034582;28;20034;-53
2022/01/19 00:37:53;;;;;;;144.02;35.28;;;4.30;99.90;;;;;;5034437;28;20034;-54
2022/01/19 00:40:20;;;;;;;144.23;34.55;;;4.30;99.90;;;;;;5034095;28;20099;-53
2022/01/19 00:42:46;;;;;;;147.85;35.03;;;4.30;99.90;;;;;;5041229;28;20046;-54
2022/01/19 00:45:13;;;;;;;139.13;34.85;;;4.50;99.90;;;;;;5033770;28;20049;-53
2022/01/19 00:47:40;;;;;;;148.98;36.40;;;4.30;99.90;;;;;;5023835;28;20049;-55
2022/01/19 00:50:09;;;;;;;139.55;34.92;;;4.30;99.90;;;;;;5033665;28;20072;-54
2022/01/19 00:52:37;;;;;;;133.82;35.50;;;4.30;99.90;;;;;;5034124;28;20072;-52
2022/01/19 00:55:06;;;;;;;154.88;34.63;;;4.30;99.90;;;;;;5032664;28;20060;-55
2022/01/19 00:57:32;;;;;;;149.93;36.22;;;4.30;99.90;;;;;;5033877;28;20744;-51
2022/01/19 00:59:57;;;;;;;151.30;37.17;;;4.30;99.90;;;;;;5033922;28;20081;-53
2022/01/19 01:02:23;;;;;;;156.57;37.15;;;4.30;99.90;;;;;;5034127;28;20045;-51
2022/01/19 01:04:49;;;;;;;168.13;37.50;;;4.30;99.90;;;;;;5034139;28;20476;-53
2022/01/19 01:07:14;;;;;;;170.32;38.20;;;4.30;99.90;;;;;;5034111;28;20045;-53
2022/01/19 01:09:40;;;;;;;240.43;36.58;;;4.20;99.90;;;;;;5033876;28;20046;-55
2022/01/19 01:12:20;;;;;;;167.75;35.20;;;4.20;99.90;;;;;;5033570;28;20049;-52
2022/01/19 01:20:16;;;;;;;279.42;29.60;;;4.10;99.90;;;;;;5033233;28;20056;-54
2022/01/19 01:22:42;;;;;;;388.05;43.03;;;4.00;99.90;;;;;;5033072;28;20051;-54
2022/01/19 01:25:08;;;;;;;425.08;40.38;;;3.90;99.90;;;;;;5033597;28;20034;-52
2022/01/19 01:27:33;;;;;;;396.50;38.78;;;3.90;99.90;;;;;;5033741;28;20095;-52
2022/01/19 01:29:59;;;;;;;437.88;40.20;;;4.00;99.90;;;;;;5033424;28;20500;-56
2022/01/19 01:32:25;;;;;;;409.60;43.00;;;4.00;99.90;;;;;;5029662;28;20045;-54
2022/01/19 01:34:52;;;;;;;343.48;41.15;;;3.90;99.90;;;;;;5033394;28;20056;-52
2022/01/19 01:37:19;;;;;;;349.52;37.88;;;4.00;99.90;;;;;;5033029;28;20467;-55
2022/01/19 01:39:45;;;;;;;294.02;37.90;;;3.90;99.90;;;;;;5033201;28;20086;-52
2022/01/19 01:42:17;;;;;;;304.25;37.60;;;3.90;99.90;;;;;;5033119;28;20041;-50
2022/01/19 01:44:46;;;;;;;224.57;33.83;;;3.90;99.90;;;;;;5033076;28;20040;-52
2022/01/19 01:47:14;;;;;;;243.35;35.90;;;3.80;99.90;;;;;;5032676;28;20492;-50
2022/01/19 01:53:26;;;;;;;334.83;37.28;;;3.80;99.90;;;;;;5033739;28;20083;-52
2022/01/19 01:55:20;;;;;;;215.80;30.50;;;3.30;99.90;;;;;;5033089;28;20068;-51
2022/01/19 01:57:46;;;;;;;234.02;32.47;;;3.90;99.90;;;;;;5031712;28;20045;-52
2022/01/19 02:00:15;;;;;;;280.23;33.45;;;3.50;99.90;;;;;;5031425;28;20455;-50
2022/01/19 02:02:40;;;;;;;227.10;35.25;;;3.50;99.90;;;;;;5020566;28;20480;-55
2022/01/19 02:05:09;;;;;;;226.85;37.30;;;3.50;99.90;;;;;;5032725;28;20055;-54
2022/01/19 02:07:59;;;;;;;293.27;37.88;;;3.40;99.90;;;;;;5032412;28;20541;-54
2022/01/19 02:16:16;;;;;;;241.85;37.67;;;3.50;99.90;;;;;;5013627;28;20067;-51
2022/01/19 02:21:58;;;;;;;257.58;38.55;;;3.50;99.90;;;;;;5010010;28;20069;-50
2022/01/19 02:24:29;;;;;;;216.15;35.30;;;3.50;99.90;;;;;;5009783;28;20038;-52
2022/01/19 02:27:09;;;;;;;245.20;36.13;;;3.50;99.90;;;;;;5013305;28;20057;-55
2022/01/19 02:40:27;;;;;;;304.80;37.92;;;3.20;99.90;;;;;;5032310;28;20095;-53
2022/01/19 02:50:38;;;;;;;232.55;35.53;;;3.20;99.90;;;;;;5030257;28;20511;-52
2022/01/19 02:53:04;;;;;;;319.52;36.80;;;3.10;99.90;;;;;;5031930;28;20037;-52
2022/01/19 02:55:31;;;;;;;441.35;43.38;;;3.10;99.90;;;;;;5031539;28;20037;-52
2022/01/19 02:57:57;;;;;;;435.10;43.25;;;3.10;99.90;;;;;;5031610;28;20486;-49
2022/01/19 03:08:48;;;;;;;282.20;40.75;;;3.10;99.90;;;;;;5031233;28;20052;-55
2022/01/19 03:11:20;;;;;;;369.50;44.92;;;3.10;99.90;;;;;;5030041;28;20049;-52
2022/01/19 03:13:47;;;;;;;339.85;44.20;;;3.10;99.90;;;;;;5031180;28;20096;-53
2022/01/19 03:16:13;;;;;;;276.50;39.83;;;3.00;99.90;;;;;;5002890;28;20504;-53
2022/01/19 03:18:39;;;;;;;242.52;37.50;;;3.00;99.90;;;;;;5031186;28;20029;-54
2022/01/19 03:21:06;;;;;;;231.98;38.22;;;3.00;99.90;;;;;;5030504;28;20041;-53
2022/01/19 03:23:32;;;;;;;273.40;41.03;;;3.00;99.90;;;;;;5031109;28;20048;-53
2022/01/19 03:26:00;;;;;;;285.70;41.15;;;3.00;99.90;;;;;;5031218;28;20471;-53
2022/01/19 03:28:26;;;;;;;246.10;37.67;;;3.00;99.90;;;;;;5031064;28;20079;-54
2022/01/19 03:30:52;;;;;;;247.23;38.25;;;3.00;99.90;;;;;;5031025;28;20073;-54
2022/01/19 03:33:18;;;;;;;308.42;42.58;;;2.90;99.90;;;;;;5031271;28;20052;-52
2022/01/19 03:35:44;;;;;;;257.30;36.75;;;2.90;99.90;;;;;;5030999;28;20481;-52
2022/01/19 03:38:10;;;;;;;247.68;39.15;;;2.90;99.90;;;;;;5030903;28;20033;-52
2022/01/19 03:40:36;;;;;;;258.25;37.00;;;2.80;99.90;;;;;;5030443;28;20041;-52
2022/01/19 03:43:06;;;;;;;209.93;35.88;;;2.80;99.90;;;;;;5031007;28;20059;-52
2022/01/19 03:45:33;;;;;;;293.00;38.75;;;2.80;99.90;;;;;;5030851;28;20507;-52
2022/01/19 03:50:34;;;;;;;261.58;36.03;;;2.60;99.90;;;;;;5029073;28;20041;-52
2022/01/19 03:53:00;;;;;;;223.82;34.25;;;2.60;99.90;;;;;;5030792;28;20451;-53
2022/01/19 03:55:27;;;;;;;298.63;37.88;;;2.60;99.90;;;;;;5030449;28;20042;-54
2022/01/19 03:57:52;;;;;;;222.50;34.95;;;2.50;99.90;;;;;;5029889;28;20077;-56
2022/01/19 04:00:20;;;;;;;256.13;40.22;;;2.50;99.90;;;;;;5030711;28;20072;-53
2022/01/19 04:02:48;;;;;;;195.48;37.05;;;2.50;99.90;;;;;;5015782;28;20050;-54
2022/01/19 04:05:38;;;;;;;335.30;41.95;;;2.40;99.90;;;;;;5030380;28;20073;-53
2022/01/19 04:08:04;;;;;;;297.45;40.55;;;2.50;99.90;;;;;;5030819;28;20053;-51
2022/01/19 04:10:30;;;;;;;210.75;38.15;;;2.50;99.90;;;;;;5029145;28;20059;-52
2022/01/19 04:13:09;;;;;;;299.40;39.67;;;2.50;99.90;;;;;;5030589;28;20057;-55
2022/01/19 04:15:36;;;;;;;217.82;38.25;;;2.50;99.90;;;;;;5030742;28;20046;-51
2022/01/19 04:18:03;;;;;;;288.58;38.78;;;2.50;99.90;;;;;;5030414;28;20045;-52
2022/01/19 04:20:29;;;;;;;309.73;37.38;;;2.50;99.90;;;;;;5030315;28;20117;-53
2022/01/19 04:22:55;;;;;;;280.10;38.08;;;2.50;99.90;;;;;;5030571;28;20116;-54
2022/01/19 04:25:21;;;;;;;251.02;37.90;;;2.50;99.90;;;;;;5029263;28;20112;-52
2022/01/19 04:27:46;;;;;;;214.45;37.35;;;2.50;99.90;;;;;;5030532;28;20033;-51
2022/01/19 04:30:14;;;;;;;237.35;38.88;;;2.50;99.90;;;;;;5030054;28;20040;-51
2022/01/19 04:32:49;;;;;;;202.60;36.25;;;2.50;99.90;;;;;;5025219;28;20128;-54
2022/01/19 04:35:20;;;;;;;270.92;38.03;;;2.50;99.90;;;;;;5027967;28;20493;-51
2022/01/19 04:49:02;;;;;;;184.85;38.42;;;2.50;99.90;;;;;;5030551;28;20582;-53
2022/01/19 05:13:25;;;;;;;98.10;32.95;;;2.50;99.90;;;;;;5033555;28;20103;-53
2022/01/19 05:15:35;;;;;;;109.60;33.78;;;2.50;99.90;;;;;;5033604;28;20049;-52
2022/01/19 05:18:02;;;;;;;99.28;33.75;;;2.50;99.90;;;;;;5031024;28;20511;-54
2022/01/19 05:20:28;;;;;;;100.07;32.75;;;2.50;99.90;;;;;;5031759;28;20034;-51
2022/01/19 05:22:54;;;;;;;94.57;33.65;;;2.50;99.90;;;;;;5033303;28;20504;-52
2022/01/19 05:25:19;;;;;;;93.63;33.25;;;2.60;99.90;;;;;;5032223;28;20168;-53
2022/01/19 05:27:45;;;;;;;98.22;33.70;;;2.60;99.90;;;;;;5033587;28;20034;-54
2022/01/19 05:30:11;;;;;;;107.05;34.75;;;2.60;99.90;;;;;;5015125;28;20049;-53
2022/01/19 05:32:37;;;;;;;99.50;34.20;;;2.60;99.90;;;;;;5033434;28;20052;-52
2022/01/19 05:35:03;;;;;;;103.78;34.30;;;2.60;99.90;;;;;;5032603;28;20042;-55
2022/01/19 05:37:30;;;;;;;99.32;35.38;;;2.60;99.90;;;;;;5033489;28;20053;-49
2022/01/19 05:39:55;;;;;;;107.45;34.67;;;2.60;99.90;;;;;;5033264;28;20127;-51
2022/01/19 05:42:22;;;;;;;98.75;35.00;;;2.60;99.90;;;;;;5033298;28;20091;-51
2022/01/19 05:44:48;;;;;;;97.18;33.78;;;2.60;99.90;;;;;;5033267;28;20057;-54
2022/01/19 05:47:15;;;;;;;97.78;33.47;;;2.60;99.90;;;;;;5032957;28;20404;-54
2022/01/19 05:49:43;;;;;;;92.25;33.28;;;2.60;99.90;;;;;;5032151;28;20075;-54
2022/01/19 05:52:10;;;;;;;93.53;32.60;;;2.60;99.90;;;;;;5033208;28;20049;-51
2022/01/19 05:54:36;;;;;;;95.72;33.13;;;2.60;99.90;;;;;;5031450;28;20072;-50
2022/01/19 05:57:02;;;;;;;102.05;33.38;;;2.60;99.90;;;;;;5032910;28;20037;-50
2022/01/19 05:59:28;;;;;;;95.13;33.58;;;2.60;99.90;;;;;;5032677;28;20041;-50
2022/01/19 06:01:55;;;;;;;99.03;34.38;;;2.50;99.90;;;;;;5030534;28;20099;-53
2022/01/19 06:04:21;;;;;;;105.00;34.78;;;2.60;99.90;;;;;;5032471;28;20042;-52
2022/01/19 06:06:49;;;;;;;89.30;31.50;;;2.60;99.90;;;;;;5032724;28;20089;-54
2022/01/19 06:12:05;;;;;;;98.38;32.25;;;2.60;99.90;;;;;;5032395;28;20080;-49
2022/01/19 06:14:32;;;;;;;107.38;33.80;;;2.60;99.90;;;;;;5032230;28;20292;-52
2022/01/19 06:16:58;;;;;;;86.45;31.40;;;2.60;99.90;;;;;;5032694;28;20388;-54
2022/01/19 06:19:24;;;;;;;88.57;30.83;;;2.60;99.90;;;;;;5032437;28;20048;-54
2022/01/19 06:21:50;;;;;;;94.35;31.52;;;2.60;99.90;;;;;;5032493;28;21335;-54
2022/01/19 06:24:16;;;;;;;94.00;33.40;;;2.60;99.90;;;;;;5006561;28;20128;-53
2022/01/19 06:26:41;;;;;;;94.10;33.60;;;2.60;99.90;;;;;;5032106;28;20535;-54
2022/01/19 06:29:07;;;;;;;86.22;31.88;;;2.60;99.90;;;;;;5032133;28;20037;-54
2022/01/19 06:31:32;;;;;;;92.95;33.88;;;2.50;99.90;;;;;;5032063;28;20385;-52
2022/01/19 06:33:58;;;;;;;93.60;33.70;;;2.50;99.90;;;;;;5019695;28;20141;-52
2022/01/19 06:36:24;;;;;;;102.00;33.65;;;2.50;99.90;;;;;;5031841;28;20037;-55
2022/01/19 06:38:50;;;;;;;91.60;33.25;;;2.50;99.90;;;;;;5032271;28;20112;-51
2022/01/19 06:41:16;;;;;;;92.10;32.35;;;2.60;99.90;;;;;;5031967;28;20049;-56
2022/01/19 06:43:41;;;;;;;89.22;33.15;;;2.60;99.90;;;;;;5032254;28;20026;-52
2022/01/19 06:46:07;;;;;;;90.07;32.75;;;2.60;99.90;;;;;;5030464;28;20064;-55
2022/01/19 06:48:33;;;;;;;96.80;33.90;;;2.60;99.90;;;;;;5029895;28;20073;-53
2022/01/19 06:50:59;;;;;;;99.43;34.75;;;2.60;99.90;;;;;;5031536;28;20052;-54
2022/01/19 06:53:26;;;;;;;92.55;32.05;;;2.60;99.90;;;;;;5032136;28;20037;-51
2022/01/19 06:55:52;;;;;;;96.47;33.90;;;2.60;99.90;;;;;;5031691;28;20048;-53
2022/01/19 06:58:17;;;;;;;94.13;33.78;;;2.60;99.90;;;;;;5030458;28;20038;-55
2022/01/19 07:00:43;;;;;;;94.32;32.92;;;2.60;99.90;;;;;;5030237;28;20164;-54
2022/01/19 07:03:09;;;;;;;90.75;32.80;;;2.60;99.90;;;;;;5022388;28;20049;-52
2022/01/19 07:05:35;;;;;;;88.63;33.22;;;2.70;99.90;;;;;;5031484;28;20041;-57
2022/01/19 07:08:00;;;;;;;99.75;34.50;;;2.60;99.90;;;;;;5031415;28;20037;-53
2022/01/19 07:10:31;;;;;;;99.97;36.22;;;2.60;99.90;;;;;;5031643;28;20037;-51
2022/01/19 07:12:58;;;;;;;111.70;36.33;;;2.60;99.90;;;;;;5031167;28;20058;-53
2022/01/19 07:15:24;;;;;;;104.85;35.95;;;2.70;99.90;;;;;;5030570;28;20049;-52
2022/01/19 07:17:50;;;;;;;113.30;36.88;;;2.70;99.90;;;;;;5028162;28;20041;-52
2022/01/19 07:20:16;;;;;;;105.72;36.60;;;2.70;99.90;;;;;;5029813;28;20049;-52
2022/01/19 07:22:41;;;;;;;101.03;35.47;;;2.70;99.90;;;;;;5031141;28;20036;-55
2022/01/19 07:25:08;;;;;;;106.70;35.83;;;2.70;99.90;;;;;;5031176;28;20037;-52
2022/01/19 07:27:34;;;;;;;107.25;37.22;;;2.70;99.90;;;;;;5030966;28;20048;-54
2022/01/19 07:30:00;;;;;;;105.85;35.33;;;2.80;99.90;;;;;;5031073;28;20041;-52
2022/01/19 07:32:30;;;;;;;110.13;35.92;;;2.80;99.90;;;;;;5029676;28;20063;-53
2022/01/19 07:34:55;;;;;;;93.53;33.30;;;2.80;99.90;;;;;;5030999;28;20448;-54
2022/01/19 07:37:21;;;;;;;100.65;34.90;;;2.80;99.90;;;;;;5030856;28;20136;-53
2022/01/19 07:39:47;;;;;;;96.15;33.67;;;2.80;99.90;;;;;;5030868;28;20116;-52
2022/01/19 07:42:12;;;;;;;102.32;35.88;;;2.80;99.90;;;;;;5031159;28;20049;-54
2022/01/19 07:44:39;;;;;;;97.93;34.78;;;2.80;99.90;;;;;;5030838;28;20056;-51
2022/01/19 07:47:06;;;;;;;109.28;36.58;;;2.80;99.90;;;;;;5030000;28;20037;-51
2022/01/19 07:49:32;;;;;;;101.28;36.50;;;2.80;99.90;;;;;;5030470;28;20122;-56
2022/01/19 07:51:57;;;;;;;95.85;35.05;;;2.80;99.90;;;;;;5030828;28;20113;-54
2022/01/19 07:54:23;;;;;;;90.75;33.65;;;2.80;99.90;;;;;;5030949;28;20041;-54
2022/01/19 07:56:49;;;;;;;100.40;35.83;;;2.80;99.90;;;;;;5016720;28;20123;-54
2022/01/19 07:59:16;;;;;;;94.70;35.85;;;2.80;99.90;;;;;;5018673;28;20060;-52
2022/01/19 08:01:42;;;;;;;103.60;36.13;;;2.90;99.90;;;;;;5018873;28;20515;-50
2022/01/19 08:04:08;;;;;;;101.90;36.28;;;2.90;99.90;;;;;;5016480;28;20029;-51
2022/01/19 08:06:34;;;;;;;97.47;36.67;;;2.90;99.90;;;;;;5003890;28;20798;-49
2022/01/19 08:09:00;;;;;;;101.82;37.72;;;2.90;99.90;;;;;;5016082;28;20037;-50
2022/01/19 08:11:25;;;;;;;99.93;37.22;;;2.90;99.90;;;;;;5016138;28;20033;-51
2022/01/19 08:13:52;;;;;;;108.25;38.33;;;2.90;99.90;;;;;;5014325;28;20042;-51
2022/01/19 08:16:18;;;;;;;97.57;36.17;;;3.00;99.90;;;;;;5017020;28;20044;-52
2022/01/19 08:18:44;;;;;;;100.95;38.15;;;3.00;99.90;;;;;;5017088;28;20030;-52
2022/01/19 08:21:10;;;;;;;99.57;38.17;;;3.00;99.90;;;;;;5014348;28;20049;-50
2022/01/19 08:23:35;;;;;;;93.88;37.55;;;3.00;99.90;;;;;;5005495;28;20026;-49
2022/01/19 08:26:01;;;;;;;90.13;37.50;;;3.00;99.90;;;;;;5010988;28;20042;-53
2022/01/19 08:28:27;;;;;;;88.20;38.00;;;3.00;99.90;;;;;;5015197;28;20045;-49
2022/01/19 08:30:52;;;;;;;90.20;37.08;;;3.00;99.90;;;;;;5002835;28;20030;-51
2022/01/19 08:33:18;;;;;;;95.18;37.30;;;3.00;99.90;;;;;;5021312;28;20041;-49
2022/01/19 08:35:44;;;;;;;92.95;37.58;;;3.00;99.90;;;;;;5020388;28;20032;-52
2022/01/19 08:38:10;;;;;;;94.75;38.03;;;3.10;99.90;;;;;;5017359;28;20455;-52
2022/01/19 08:40:37;;;;;;;86.97;37.80;;;3.00;99.90;;;;;;5007036;28;20033;-48
2022/01/19 08:43:04;;;;;;;88.60;37.05;;;3.10;99.90;;;;;;5018021;28;20422;-54
2022/01/19 08:45:29;;;;;;;92.82;38.10;;;3.10;99.90;;;;;;5016479;28;20098;-52
2022/01/19 08:47:55;;;;;;;97.40;37.40;;;3.10;99.90;;;;;;5013447;28;20041;-52
2022/01/19 08:50:22;;;;;;;83.18;36.38;;;3.10;99.90;;;;;;5016229;28;20190;-52
2022/01/19 08:52:47;;;;;;;88.40;37.13;;;3.20;99.90;;;;;;5018939;28;20492;-54
2022/01/19 08:55:14;;;;;;;90.82;38.35;;;3.20;99.90;;;;;;5008756;28;20040;-53
2022/01/19 08:57:40;;;;;;;87.95;37.90;;;3.20;99.90;;;;;;5018309;28;20045;-53
2022/01/19 09:00:09;;;;;;;90.00;39.55;;;3.20;99.90;;;;;;5010598;28;20030;-52
2022/01/19 09:02:34;;;;;;;91.35;39.00;;;3.20;99.90;;;;;;5000553;28;20521;-51
2022/01/19 09:05:02;;;;;;;93.40;37.97;;;3.30;99.90;;;;;;5019066;28;20045;-51
2022/01/19 09:07:27;;;;;;;98.22;40.97;;;3.40;99.90;;;;;;5021446;28;20121;-54
2022/01/19 09:09:53;;;;;;;97.75;40.88;;;3.30;99.90;;;;;;5020738;28;20128;-50
2022/01/19 09:12:19;;;;;;;96.20;42.47;;;3.30;99.90;;;;;;5014640;28;20166;-52
2022/01/19 09:14:45;;;;;;;96.88;40.95;;;3.40;99.90;;;;;;5014706;28;20053;-52
2022/01/19 09:17:10;;;;;;;98.40;41.28;;;3.40;99.90;;;;;;5014364;28;20128;-50
2022/01/19 09:19:39;;;;;;;95.30;41.55;;;3.50;99.90;;;;;;5016407;28;20061;-52
2022/01/19 09:22:07;;;;;;;102.82;42.00;;;3.50;99.90;;;;;;5017200;28;20112;-51
2022/01/19 09:24:34;;;;;;;96.68;41.30;;;3.60;99.90;;;;;;5002275;28;20049;-53
2022/01/19 09:27:00;;;;;;;102.97;41.92;;;3.50;99.90;;;;;;5018370;28;20073;-52
2022/01/19 09:29:26;;;;;;;98.53;41.20;;;3.50;99.90;;;;;;5017375;28;20041;-53
2022/01/19 09:31:54;;;;;;;105.50;42.50;;;3.60;99.90;;;;;;5018563;28;20099;-53
2022/01/19 09:34:21;;;;;;;94.10;41.13;;;3.60;99.90;;;;;;5020282;28;20158;-51
2022/01/19 09:36:48;;;;;;;111.03;44.65;;;3.60;99.90;;;;;;5018616;28;20057;-51
2022/01/19 09:39:20;;;;;;;101.38;42.83;;;3.60;99.90;;;;;;5017381;28;20047;-52
2022/01/19 09:41:46;;;;;;;100.78;42.20;;;3.60;99.90;;;;;;5013902;28;20404;-52
2022/01/19 09:44:12;;;;;;;103.35;42.50;;;3.60;99.90;;;;;;5014435;28;20041;-54
2022/01/19 09:46:38;;;;;;;104.13;42.88;;;3.60;99.90;;;;;;5014480;28;20116;-53
2022/01/19 09:49:07;;;;;;;100.30;43.22;;;3.60;99.90;;;;;;5016223;28;20084;-51
2022/01/19 09:51:33;;;;;;;102.95;45.22;;;3.60;99.90;;;;;;5017981;28;20429;-51
2022/01/19 09:53:59;;;;;;;97.40;43.45;;;3.60;99.90;;;;;;5017994;28;20041;-51
2022/01/19 09:56:25;;;;;;;105.22;45.28;;;3.60;99.90;;;;;;5014713;28;20048;-49
2022/01/19 09:58:51;;;;;;;112.10;47.25;;;3.70;99.90;;;;;;5025060;28;20033;-48
2022/01/19 10:01:19;;;;;;;104.30;46.35;;;3.60;99.90;;;;;;5025151;28;20102;-50
2022/01/19 10:03:45;;;;;;;99.07;45.75;;;3.60;99.90;;;;;;5029263;28;20373;-50
2022/01/19 10:06:14;;;;;;;110.03;45.78;;;3.70;99.90;;;;;;5030536;28;20046;-50
2022/01/19 10:08:48;;;;;;;107.45;45.47;;;3.70;99.90;;;;;;5030413;28;20041;-52
2022/01/19 10:17:09;;;;;;;103.07;45.95;;;3.80;99.90;;;;;;5032584;28;20484;-53
2022/01/19 10:19:45;;;;;;;120.00;49.60;;;3.80;99.90;;;;;;5032825;28;20468;-49
2022/01/19 10:22:18;;;;;;;103.90;46.78;;;3.80;99.90;;;;;;5032058;28;20488;-51
2022/01/19 10:24:51;;;;;;;111.20;47.88;;;3.90;99.90;;;;;;5032499;28;20107;-53
2022/01/19 10:27:27;;;;;;;111.73;49.63;;;3.90;99.90;;;;;;5032183;28;20045;-50
2022/01/19 10:30:05;;;;;;;108.50;46.65;;;3.90;99.90;;;;;;5032558;28;20304;-51
2022/01/19 10:32:50;;;;;;;110.05;48.20;;;3.90;99.90;;;;;;5031740;28;20103;-51
2022/01/19 10:35:26;;;;;;;111.28;47.03;;;3.90;99.90;;;;;;5032337;28;20530;-51
2022/01/19 10:38:14;;;;;;;116.18;50.72;;;4.00;99.90;;;;;;5032208;28;20041;-53
2022/01/19 10:40:55;;;;;;;115.47;49.55;;;4.00;99.90;;;;;;5032031;28;20080;-47
2022/01/19 10:43:47;;;;;;;126.57;51.75;;;4.00;99.90;;;;;;5030917;28;20036;-50
2022/01/19 10:46:16;;;;;;;110.97;48.47;;;4.00;99.90;;;;;;5031838;28;20045;-50
2022/01/19 10:48:43;;;;;;;117.90;49.85;;;4.00;99.90;;;;;;5031662;28;20508;-49
2022/01/19 10:51:19;;;;;;;113.72;49.72;;;4.10;99.90;;;;;;5031654;28;20391;-49
2022/01/19 10:54:04;;;;;;;122.47;52.00;;;4.10;99.90;;;;;;5031875;28;20045;-54
2022/01/19 10:56:32;;;;;;;123.57;51.55;;;4.10;99.90;;;;;;5031790;28;20535;-52
2022/01/19 10:59:10;;;;;;;117.00;49.58;;;4.10;99.90;;;;;;5015298;28;20049;-53
2022/01/19 11:01:44;;;;;;;107.05;48.35;;;4.20;99.90;;;;;;5030257;28;20064;-55
2022/01/19 11:04:28;;;;;;;121.60;52.95;;;4.20;99.90;;;;;;5030953;28;20088;-53
2022/01/19 11:06:57;;;;;;;113.68;48.10;;;4.20;99.90;;;;;;5031286;28;20439;-54
2022/01/19 11:09:25;;;;;;;117.95;51.22;;;4.20;99.90;;;;;;5029806;28;20055;-52
2022/01/19 11:11:53;;;;;;;115.88;50.35;;;4.10;99.90;;;;;;5028732;28;20103;-51
2022/01/19 11:14:20;;;;;;;123.32;53.45;;;4.10;99.90;;;;;;5029829;28;20133;-52
2022/01/19 11:16:47;;;;;;;116.78;51.67;;;4.10;99.90;;;;;;5031542;28;20118;-53
2022/01/19 11:19:14;;;;;;;129.07;53.67;;;4.10;99.90;;;;;;5031244;28;20377;-51
2022/01/19 11:22:12;;;;;;;120.72;51.97;;;4.10;99.90;;;;;;5031395;28;20045;-53
2022/01/19 11:24:43;;;;;;;133.20;55.65;;;4.10;99.90;;;;;;5031602;28;20400;-55
2022/01/19 11:27:10;;;;;;;134.70;54.60;;;4.10;99.90;;;;;;5031027;28;20049;-55
2022/01/19 11:29:38;;;;;;;135.27;54.47;;;4.10;99.90;;;;;;5031168;28;20034;-53
2022/01/19 11:32:19;;;;;;;129.02;54.10;;;4.10;99.90;;;;;;5031173;28;20049;-54
2022/01/19 11:34:49;;;;;;;137.27;56.15;;;4.10;99.90;;;;;;5031283;28;20041;-52
2022/01/19 11:37:32;;;;;;;122.72;53.65;;;4.20;99.90;;;;;;5031270;28;20131;-52
2022/01/19 11:40:23;;;;;;;125.20;53.75;;;4.10;99.90;;;;;;5031113;28;20037;-52
2022/01/19 11:43:09;;;;;;;135.20;55.45;;;4.20;99.90;;;;;;5030915;28;20029;-54
2022/01/19 11:45:38;;;;;;;132.13;55.03;;;4.20;99.90;;;;;;5030999;28;20038;-53
2022/01/19 11:48:14;;;;;;;119.95;53.38;;;4.20;99.90;;;;;;5030015;28;20148;-52
2022/01/19 11:50:40;;;;;;;125.88;53.67;;;4.30;99.90;;;;;;5030938;28;20597;-52
2022/01/19 11:53:10;;;;;;;127.25;54.35;;;4.30;99.90;;;;;;5016863;28;20128;-52
2022/01/19 11:55:36;;;;;;;121.95;53.28;;;4.30;99.90;;;;;;5029269;28;20106;-53
2022/01/19 11:58:24;;;;;;;125.30;54.63;;;4.30;99.90;;;;;;5028978;28;20048;-53
2022/01/19 12:00:55;;;;;;;120.75;53.53;;;4.30;99.90;;;;;;5031306;28;20040;-53
2022/01/19 12:03:26;;;;;;;123.65;53.38;;;4.30;99.90;;;;;;5032281;28;20396;-53
2022/01/19 12:05:53;;;;;;;129.95;53.92;;;4.40;99.90;;;;;;5033952;28;20484;-52
2022/01/19 12:08:35;;;;;;;120.65;52.67;;;4.30;99.90;;;;;;5028473;28;20112;-53
2022/01/19 12:11:10;;;;;;;122.43;52.53;;;4.40;99.90;;;;;;5031553;28;20099;-53
2022/01/19 12:19:07;;;;;;;118.80;51.50;;;4.40;99.90;;;;;;5030974;28;20128;-53
2022/01/19 12:21:41;;;;;;;124.32;52.60;;;4.50;99.90;;;;;;5030239;28;20168;-55
2022/01/19 12:24:32;;;;;;;109.78;49.75;;;4.40;99.90;;;;;;5032300;28;20094;-54
2022/01/19 12:27:09;;;;;;;112.63;50.22;;;4.40;99.90;;;;;;5034355;28;20049;-54
2022/01/19 12:29:38;;;;;;;110.20;48.38;;;4.40;99.90;;;;;;5028990;28;20458;-53
2022/01/19 12:32:16;;;;;;;117.90;49.42;;;4.50;99.90;;;;;;5024097;28;20095;-54
2022/01/19 12:34:50;;;;;;;114.30;50.33;;;4.40;99.90;;;;;;5032265;28;20056;-52
2022/01/19 12:37:25;;;;;;;101.65;49.42;;;4.50;99.90;;;;;;5033146;28;20038;-53
2022/01/19 12:39:51;;;;;;;111.93;50.45;;;4.50;99.90;;;;;;5027615;28;20510;-55
2022/01/19 12:42:39;;;;;;;95.50;45.95;;;4.50;99.90;;;;;;5030217;28;20037;-53
2022/01/19 12:45:20;;;;;;;109.60;49.05;;;4.50;99.90;;;;;;5032577;28;20086;-51
2022/01/19 12:47:50;;;;;;;105.50;48.15;;;4.50;99.90;;;;;;5034734;28;20396;-53
2022/01/19 12:50:16;;;;;;;100.70;48.10;;;4.50;99.90;;;;;;5027557;28;20046;-51
2022/01/19 12:52:45;;;;;;;102.97;48.50;;;4.50;99.90;;;;;;5029528;28;20037;-52
2022/01/19 12:55:20;;;;;;;100.53;46.05;;;4.50;99.90;;;;;;5032378;28;20381;-53
2022/01/19 12:57:47;;;;;;;105.53;48.20;;;4.50;99.90;;;;;;5032158;28;20029;-52
2022/01/19 13:00:19;;;;;;;114.90;48.75;;;4.50;99.90;;;;;;5025359;28;20104;-54
2022/01/19 13:02:45;;;;;;;102.57;46.85;;;4.50;99.90;;;;;;5031991;28;20075;-51
2022/01/19 13:05:14;;;;;;;107.80;47.53;;;4.60;99.90;;;;;;5032639;28;20145;-49
2022/01/19 13:07:43;;;;;;;103.82;47.28;;;4.60;99.90;;;;;;5030116;28;20124;-51
2022/01/19 13:13:08;;;;;;;102.22;47.63;;;4.60;99.90;;;;;;5036792;28;20511;-52
2022/01/19 13:15:52;;;;;;;99.35;47.25;;;4.60;99.90;;;;;;5037061;28;20041;-53
2022/01/19 13:18:42;;;;;;;95.70;44.15;;;5.40;99.90;;;;;;5031298;28;20080;-52
2022/01/19 13:21:16;;;;;;;98.63;46.47;;;4.70;99.90;;;;;;5031759;28;20034;-53
2022/01/19 13:24:15;;;;;;;97.75;46.15;;;4.70;99.90;;;;;;5036334;28;20124;-50
2022/01/19 13:26:45;;;;;;;89.85;42.65;;;4.80;99.90;;;;;;5027129;28;20045;-52
2022/01/19 13:29:34;;;;;;;91.20;44.25;;;4.80;99.90;;;;;;5033504;28;20374;-53
2022/01/19 13:32:19;;;;;;;94.50;45.22;;;4.80;99.90;;;;;;5031789;28;20044;-53
2022/01/19 13:34:53;;;;;;;;;;;4.90;99.90;;;;;;5033888;28;20037;-53
2022/01/19 13:37:20;;;;;;;;;;;4.80;99.90;;;;;;5032708;28;20068;-54
2022/01/19 13:39:54;;;;;;;88.22;41.47;;;4.80;99.90;;;;;;5033260;28;19921;-53
2022/01/19 13:42:41;;;;;;;91.18;43.38;;;4.80;99.90;;;;;;5033011;28;20496;-55
2022/01/19 13:45:38;;;;;;;88.65;43.75;;;4.90;99.90;;;;;;5026747;28;20090;-53
2022/01/19 13:50:44;;;;;;;96.72;42.58;;;4.90;99.90;;;;;;5031338;28;20056;-51
2022/01/19 13:53:11;;;;;;;88.63;42.78;;;4.90;99.90;;;;;;5033148;28;20519;-53
2022/01/19 13:55:37;;;;;;;86.75;42.72;;;4.90;99.90;;;;;;5033166;28;20044;-50
2022/01/19 13:58:04;;;;;;;87.55;42.03;;;4.90;99.90;;;;;;5031055;28;20042;-54
2022/01/19 14:00:29;;;;;;;97.30;42.25;;;4.90;99.90;;;;;;5032554;28;20072;-54
2022/01/19 14:03:04;;;;;;;89.30;42.72;;;4.90;99.90;;;;;;5032667;28;20081;-52
2022/01/19 14:05:40;;;;;;;;;;;4.90;99.90;;;;;;5033531;28;20053;-52
2022/01/19 14:08:07;;;;;;;87.10;38.65;;;4.90;99.90;;;;;;5032914;28;19921;-51
2022/01/19 14:10:44;;;;;;;88.60;40.88;;;4.90;99.90;;;;;;5032841;28;20045;-53
2022/01/19 14:13:30;;;;;;;81.22;39.78;;;5.00;99.90;;;;;;5032416;28;20073;-52
2022/01/19 14:16:17;;;;;;;83.63;39.80;;;5.00;99.90;;;;;;5030632;28;20558;-56
2022/01/19 14:19:03;;;;;;;90.97;39.70;;;5.00;99.90;;;;;;5027789;28;20045;-53
2022/01/19 14:21:28;;;;;;;84.20;39.38;;;5.00;99.90;;;;;;5026826;28;20041;-50